createdAt,value
2022-12-03T00:00:25.702Z,9.70
2022-12-03T00:03:36.511Z,11.50
2022-12-03T00:06:31.467Z,10.00
2022-12-03T00:09:24.959Z,10.60
2022-12-03T00:12:15.443Z,10.40
2022-12-03T00:15:09.613Z,10.40
2022-12-03T00:18:00.110Z,10.40
2022-12-03T00:20:50.703Z,9.90
2022-12-03T00:23:42.444Z,9.80
2022-12-03T00:26:33.153Z,10.10
2022-12-03T00:29:23.673Z,10.20
2022-12-03T00:32:15.824Z,10.20
2022-12-03T00:35:08.114Z,10.40
2022-12-03T00:37:58.616Z,9.40
2022-12-03T00:40:49.165Z,9.40
2022-12-03T00:43:39.652Z,9.90
2022-12-03T00:46:33.428Z,9.90
2022-12-03T00:49:24.023Z,9.90
2022-12-03T00:52:14.910Z,9.80
2022-12-03T00:55:06.698Z,9.10
2022-12-03T00:57:57.201Z,9.40
2022-12-03T01:00:47.732Z,9.60
2022-12-03T01:03:38.434Z,9.10
2022-12-03T01:06:28.954Z,9.50
2022-12-03T01:09:19.460Z,8.90
2022-12-03T01:12:11.411Z,9.60
2022-12-03T01:15:02.321Z,9.00
2022-12-03T01:17:53.886Z,9.30
2022-12-03T01:20:44.765Z,8.70
2022-12-03T01:23:37.548Z,8.70
2022-12-03T01:26:28.387Z,8.70
2022-12-03T01:29:18.908Z,8.80
2022-12-03T01:32:19.289Z,9.10
2022-12-03T01:35:10.661Z,9.10
2022-12-03T01:38:01.292Z,8.90
2022-12-03T01:40:51.878Z,9.10
2022-12-03T01:43:42.499Z,8.90
2022-12-03T01:46:37.351Z,8.50
2022-12-03T01:49:29.285Z,8.40
2022-12-03T01:52:22.099Z,8.00
2022-12-03T01:55:16.238Z,8.40
2022-12-03T01:58:06.781Z,8.40
2022-12-03T02:00:58.038Z,8.30
2022-12-03T02:03:48.644Z,8.00
2022-12-03T02:06:39.250Z,8.40
2022-12-03T02:09:30.850Z,8.50
2022-12-03T02:12:25.192Z,8.00
2022-12-03T02:15:15.705Z,8.20
2022-12-03T02:18:07.878Z,8.50
2022-12-03T02:21:02.891Z,7.90
2022-12-03T02:23:59.815Z,7.90
2022-12-03T02:26:50.967Z,8.40
2022-12-03T02:29:42.489Z,8.00
2022-12-03T02:32:32.978Z,7.40
2022-12-03T02:35:26.177Z,8.30
2022-12-03T02:38:18.661Z,7.70
2022-12-03T02:41:11.002Z,7.20
2022-12-03T02:44:01.523Z,7.60
2022-12-03T02:46:52.047Z,7.50
2022-12-03T02:49:42.575Z,7.50
2022-12-03T02:52:33.398Z,7.10
2022-12-03T02:55:24.107Z,7.40
2022-12-03T02:58:15.357Z,7.20
2022-12-03T03:01:06.653Z,6.60
2022-12-03T03:03:57.345Z,7.10
2022-12-03T03:06:47.889Z,6.50
2022-12-03T03:09:38.781Z,6.70
2022-12-03T03:12:30.547Z,6.80
2022-12-03T03:15:23.852Z,7.00
2022-12-03T03:18:14.631Z,6.40
2022-12-03T03:21:05.911Z,6.70
2022-12-03T03:23:56.870Z,6.90
2022-12-03T03:26:47.318Z,6.90
2022-12-03T03:29:37.787Z,6.70
2022-12-03T03:32:33.942Z,6.50
2022-12-03T03:35:25.129Z,6.30
2022-12-03T03:38:15.904Z,6.20
2022-12-03T03:41:07.004Z,6.40
2022-12-03T03:43:57.524Z,6.30
2022-12-03T03:46:48.576Z,5.80
2022-12-03T03:49:39.331Z,6.30
2022-12-03T03:52:29.892Z,6.20
2022-12-03T03:55:20.636Z,5.80
2022-12-03T03:58:11.131Z,6.20
2022-12-03T04:01:02.257Z,6.60
2022-12-03T04:03:54.277Z,5.80
2022-12-03T04:06:44.853Z,6.20
2022-12-03T04:09:35.330Z,5.80
2022-12-03T04:12:43.963Z,6.50
2022-12-03T04:15:34.432Z,5.50
2022-12-03T04:18:43.054Z,6.00
2022-12-03T04:21:51.726Z,6.00
2022-12-03T04:24:42.949Z,5.80
2022-12-03T04:27:51.652Z,5.70
2022-12-03T04:30:42.538Z,6.20
2022-12-03T04:33:51.581Z,5.40
2022-12-03T04:36:43.512Z,5.90
2022-12-03T04:39:34.046Z,5.80
2022-12-03T04:42:24.561Z,5.50
2022-12-03T04:45:15.434Z,5.90
2022-12-03T04:48:07.188Z,5.60
2022-12-03T04:50:58.011Z,5.60
2022-12-03T04:53:48.493Z,5.80
2022-12-03T04:56:39.122Z,5.40
2022-12-03T04:59:29.933Z,6.00
2022-12-03T05:02:21.742Z,5.40
2022-12-03T05:05:12.392Z,5.40
2022-12-03T05:08:02.936Z,5.20
2022-12-03T05:10:53.528Z,5.20
2022-12-03T05:13:43.982Z,5.40
2022-12-03T05:16:34.525Z,5.60
2022-12-03T05:19:45.111Z,5.60
2022-12-03T05:22:35.736Z,5.20
2022-12-03T05:25:30.882Z,5.40
2022-12-03T05:28:23.725Z,5.80
2022-12-03T05:31:14.335Z,5.50
2022-12-03T05:34:05.432Z,5.90
2022-12-03T05:36:55.957Z,4.90
2022-12-03T05:39:46.459Z,5.70
2022-12-03T05:42:56.501Z,5.40
2022-12-03T05:45:47.109Z,5.40
2022-12-03T05:48:37.730Z,5.90
2022-12-03T05:51:28.300Z,5.90
2022-12-03T05:54:20.867Z,5.50
2022-12-03T05:57:11.351Z,5.50
2022-12-03T06:00:02.334Z,5.40
2022-12-03T06:03:03.419Z,5.80
2022-12-03T06:05:54.057Z,6.10
2022-12-03T06:08:44.552Z,6.40
2022-12-03T06:11:36.635Z,6.30
2022-12-03T06:14:29.694Z,6.40
2022-12-03T06:17:21.175Z,6.50
2022-12-03T06:20:14.574Z,6.60
2022-12-03T06:23:05.134Z,6.90
2022-12-03T06:25:55.742Z,6.80
2022-12-03T06:28:48.636Z,7.50
2022-12-03T06:31:39.245Z,6.90
2022-12-03T06:34:29.958Z,7.40
2022-12-03T06:37:20.569Z,7.60
2022-12-03T06:40:16.266Z,7.80
2022-12-03T06:43:07.255Z,7.80
2022-12-03T06:45:58.189Z,8.00
2022-12-03T06:48:53.252Z,8.20
2022-12-03T06:51:44.466Z,8.50
2022-12-03T06:54:35.252Z,8.00
2022-12-03T06:57:25.956Z,9.30
2022-12-03T07:00:18.924Z,9.40
2022-12-03T07:03:09.958Z,8.90
2022-12-03T07:06:00.778Z,9.20
2022-12-03T07:08:51.273Z,9.00
2022-12-03T07:11:41.885Z,10.00
2022-12-03T07:14:32.859Z,9.70
2022-12-03T07:17:23.414Z,8.90
2022-12-03T07:20:15.908Z,9.50
2022-12-03T07:23:06.841Z,9.60
2022-12-03T07:25:57.822Z,10.10
2022-12-03T07:28:48.741Z,10.30
2022-12-03T07:31:40.628Z,10.00
2022-12-03T07:34:31.202Z,10.70
2022-12-03T07:37:23.425Z,10.50
2022-12-03T07:40:15.531Z,11.60
2022-12-03T07:43:06.191Z,11.00
2022-12-03T07:45:56.756Z,10.50
2022-12-03T07:48:47.316Z,10.70
2022-12-03T07:51:37.968Z,10.40
2022-12-03T07:54:28.542Z,10.10
2022-12-03T07:57:19.154Z,10.10
2022-12-03T08:00:14.387Z,10.40
2022-12-03T08:03:07.813Z,10.40
2022-12-03T08:05:59.681Z,10.30
2022-12-03T08:08:50.242Z,11.00
2022-12-03T08:11:41.827Z,10.20
2022-12-03T08:14:32.333Z,10.90
2022-12-03T08:17:23.164Z,10.90
2022-12-03T08:20:18.818Z,10.10
2022-12-03T08:23:15.184Z,10.10
2022-12-03T08:26:14.317Z,10.60
2022-12-03T08:29:09.453Z,10.40
2022-12-03T08:32:00.290Z,10.10
2022-12-03T08:34:51.721Z,9.90
2022-12-03T08:37:42.887Z,9.80
2022-12-03T08:40:37.210Z,9.70
2022-12-03T08:43:29.206Z,10.30
2022-12-03T08:46:20.392Z,10.30
2022-12-03T08:49:11.570Z,10.10
2022-12-03T08:52:06.833Z,10.70
2022-12-03T08:54:57.556Z,10.70
2022-12-03T08:57:48.250Z,11.00
2022-12-03T09:00:39.040Z,10.50
2022-12-03T09:03:31.916Z,10.10
2022-12-03T09:06:22.529Z,10.00
2022-12-03T09:09:13.187Z,10.80
2022-12-03T09:12:04.395Z,10.80
2022-12-03T09:14:55.150Z,11.00
2022-12-03T09:17:46.033Z,11.10
2022-12-03T09:20:36.597Z,11.10
2022-12-03T09:23:27.223Z,10.60
2022-12-03T09:26:17.831Z,10.90
2022-12-03T09:29:12.065Z,11.20
2022-12-03T09:32:03.604Z,10.70
2022-12-03T09:34:54.500Z,11.60
2022-12-03T09:37:45.336Z,11.50
2022-12-03T09:40:35.808Z,11.40
2022-12-03T09:43:49.497Z,11.60
2022-12-03T09:46:37.833Z,11.40
2022-12-03T09:49:28.885Z,11.60
2022-12-03T09:52:24.015Z,10.90
2022-12-03T09:55:20.966Z,11.60
2022-12-03T09:58:13.607Z,11.60
2022-12-03T10:01:09.976Z,11.50
2022-12-03T10:04:01.253Z,11.90
2022-12-03T10:06:51.862Z,11.60
2022-12-03T10:09:42.415Z,11.80
2022-12-03T10:12:32.899Z,11.90
2022-12-03T10:15:24.497Z,12.00
2022-12-03T10:18:20.253Z,12.30
2022-12-03T10:21:16.594Z,11.80
2022-12-03T10:24:25.872Z,11.20
2022-12-03T10:27:29.996Z,11.00
2022-12-03T10:30:22.939Z,11.70
2022-12-03T10:33:18.822Z,11.90
2022-12-03T10:36:25.045Z,12.40
2022-12-03T10:39:16.815Z,12.20
2022-12-03T10:42:21.163Z,11.90
2022-12-03T10:45:19.150Z,12.10
2022-12-03T10:48:14.232Z,11.70
2022-12-03T10:51:07.162Z,12.60
2022-12-03T10:53:57.676Z,11.90
2022-12-03T10:56:49.519Z,12.00
2022-12-03T10:59:40.393Z,12.10
2022-12-03T11:02:30.923Z,11.60
2022-12-03T11:05:23.263Z,12.00
2022-12-03T11:08:20.405Z,11.70
2022-12-03T11:11:19.657Z,11.50
2022-12-03T11:14:11.755Z,11.10
2022-12-03T11:17:10.144Z,12.40
2022-12-03T11:20:00.662Z,12.10
2022-12-03T11:22:52.027Z,13.50
2022-12-03T11:25:50.646Z,12.80
2022-12-03T11:28:58.883Z,13.30
2022-12-03T11:31:50.101Z,12.20
2022-12-03T11:34:44.039Z,12.90
2022-12-03T11:37:34.570Z,12.50
2022-12-03T11:40:28.510Z,12.70
2022-12-03T11:43:38.389Z,13.70
2022-12-03T11:46:30.363Z,13.30
2022-12-03T11:49:37.309Z,14.50
2022-12-03T11:52:30.954Z,14.70
2022-12-03T11:55:28.246Z,14.80
2022-12-03T11:58:23.446Z,15.90
2022-12-03T12:01:15.381Z,17.00
2022-12-03T12:04:06.489Z,18.80
2022-12-03T12:06:56.959Z,17.20
2022-12-03T12:09:53.017Z,15.70
2022-12-03T12:12:54.285Z,17.60
2022-12-03T12:15:46.381Z,16.80
2022-12-03T12:18:42.226Z,17.20
2022-12-03T12:21:47.059Z,15.20
2022-12-03T12:24:46.288Z,15.70
2022-12-03T12:27:44.427Z,16.50
2022-12-03T12:30:35.010Z,16.00
2022-12-03T12:33:26.091Z,15.60
2022-12-03T12:36:16.660Z,16.20
2022-12-03T12:39:11.319Z,15.60
2022-12-03T12:42:19.356Z,14.90
2022-12-03T12:45:18.692Z,14.30
2022-12-03T12:48:17.338Z,13.40
2022-12-03T12:51:13.983Z,14.00
2022-12-03T12:54:09.284Z,14.30
2022-12-03T12:57:01.116Z,13.40
2022-12-03T12:59:55.717Z,14.20
2022-12-03T13:05:48.015Z,13.80
2022-12-03T13:08:42.673Z,13.70
2022-12-03T13:15:54.291Z,14.40
2022-12-03T13:18:47.780Z,14.60
2022-12-03T13:21:40.378Z,13.50
2022-12-03T13:24:37.134Z,14.00
2022-12-03T13:27:29.702Z,13.60
2022-12-03T13:30:21.513Z,13.90
2022-12-03T13:33:15.535Z,14.70
2022-12-03T13:36:12.247Z,13.80
2022-12-03T13:39:05.724Z,13.60
2022-12-03T13:42:14.558Z,14.10
2022-12-03T13:45:18.767Z,14.50
2022-12-03T13:48:21.384Z,13.00
2022-12-03T13:51:19.413Z,13.10
2022-12-03T13:54:15.983Z,13.50
2022-12-03T13:57:07.158Z,13.40
2022-12-03T13:59:57.683Z,13.70
2022-12-03T14:02:48.301Z,13.40
2022-12-03T14:05:38.945Z,13.10
2022-12-03T14:08:29.424Z,13.80
2022-12-03T14:11:38.278Z,12.80
2022-12-03T14:14:28.792Z,13.20
2022-12-03T14:17:19.420Z,13.40
2022-12-03T14:20:13.620Z,13.40
2022-12-03T14:23:04.124Z,13.40
2022-12-03T14:25:54.576Z,13.30
2022-12-03T14:28:45.071Z,13.80
2022-12-03T14:31:35.637Z,13.00
2022-12-03T14:34:26.525Z,13.40
2022-12-03T14:37:17.124Z,12.90
2022-12-03T14:40:10.862Z,13.50
2022-12-03T14:43:03.165Z,13.20
2022-12-03T14:45:53.711Z,13.90
2022-12-03T14:48:44.685Z,14.00
2022-12-03T14:51:35.176Z,14.10
2022-12-03T14:54:25.671Z,13.50
2022-12-03T14:57:16.704Z,14.10
2022-12-03T15:00:12.272Z,14.20
2022-12-03T15:03:02.919Z,13.90
2022-12-03T15:05:56.568Z,13.80
2022-12-03T15:08:48.057Z,14.00
2022-12-03T15:11:42.980Z,15.00
2022-12-03T15:14:36.605Z,14.40
2022-12-03T15:17:31.792Z,14.70
2022-12-03T15:20:23.346Z,15.40
2022-12-03T15:23:16.295Z,14.90
2022-12-03T15:26:07.838Z,14.80
2022-12-03T15:28:58.446Z,13.70
2022-12-03T15:31:49.034Z,15.00
2022-12-03T15:34:40.007Z,14.90
2022-12-03T15:37:30.582Z,15.80
2022-12-03T15:40:21.123Z,15.50
2022-12-03T15:43:12.019Z,16.50
2022-12-03T15:46:02.533Z,16.00
2022-12-03T15:48:53.011Z,15.70
2022-12-03T15:51:43.579Z,17.70
2022-12-03T15:54:34.054Z,16.70
2022-12-03T15:57:24.543Z,16.70
2022-12-03T16:00:17.671Z,16.60
2022-12-03T16:03:08.240Z,16.20
2022-12-03T16:05:58.738Z,16.30
2022-12-03T16:08:49.256Z,15.80
2022-12-03T16:11:39.771Z,17.20
2022-12-03T16:14:30.316Z,16.20
2022-12-03T16:17:20.840Z,16.30
2022-12-03T16:20:12.299Z,15.40
2022-12-03T16:23:02.892Z,16.10
2022-12-03T16:25:53.420Z,16.10
2022-12-03T16:28:44.405Z,15.40
2022-12-03T16:31:35.134Z,15.70
2022-12-03T16:34:25.767Z,16.00
2022-12-03T16:37:16.327Z,15.60
2022-12-03T16:40:13.762Z,15.20
2022-12-03T16:43:05.732Z,14.40
2022-12-03T16:46:19.904Z,16.60
2022-12-03T16:49:12.092Z,16.50
2022-12-03T16:52:03.924Z,16.20
2022-12-03T16:54:54.477Z,16.60
2022-12-03T16:57:45.173Z,16.60
2022-12-03T17:00:36.078Z,16.70
2022-12-03T17:03:33.427Z,16.40
2022-12-03T17:06:25.407Z,16.30
2022-12-03T17:09:15.946Z,16.00
2022-12-03T17:12:07.198Z,16.70
2022-12-03T17:14:57.787Z,18.00
2022-12-03T17:17:49.015Z,17.50
2022-12-03T17:20:39.820Z,18.00
2022-12-03T17:23:30.297Z,17.60
2022-12-03T17:26:20.807Z,17.90
2022-12-03T17:29:11.321Z,18.00
2022-12-03T17:32:02.279Z,18.40
2022-12-03T17:34:52.794Z,19.20
2022-12-03T17:37:43.335Z,18.40
2022-12-03T17:40:33.826Z,18.30
2022-12-03T17:43:24.286Z,19.00
2022-12-03T17:46:14.826Z,18.30
2022-12-03T17:49:05.419Z,18.10
2022-12-03T17:51:55.901Z,19.10
2022-12-03T17:55:10.098Z,18.60
2022-12-03T17:57:57.191Z,19.50
2022-12-03T18:00:47.897Z,18.60
2022-12-03T18:03:39.089Z,18.90
2022-12-03T18:06:29.910Z,18.70
2022-12-03T18:09:20.741Z,19.80
2022-12-03T18:12:11.541Z,19.10
2022-12-03T18:15:02.313Z,19.00
2022-12-03T18:17:52.904Z,19.50
2022-12-03T18:20:44.140Z,18.40
2022-12-03T18:23:35.003Z,19.00
2022-12-03T18:26:25.814Z,19.50
2022-12-03T18:29:16.966Z,19.90
2022-12-03T18:32:27.272Z,19.20
2022-12-03T18:35:20.160Z,19.10
2022-12-03T18:38:12.823Z,20.00
2022-12-03T18:41:03.456Z,20.20
2022-12-03T18:43:54.069Z,21.60
2022-12-03T18:46:53.610Z,21.10
2022-12-03T18:49:45.036Z,20.80
2022-12-03T18:52:35.996Z,21.20
2022-12-03T18:55:26.600Z,22.10
2022-12-03T18:58:17.083Z,22.10
2022-12-03T19:01:09.551Z,22.20
2022-12-03T19:04:00.160Z,21.70
2022-12-03T19:06:50.664Z,21.10
2022-12-03T19:09:41.535Z,22.40
2022-12-03T19:12:31.998Z,21.30
2022-12-03T19:15:23.591Z,20.90
2022-12-03T19:18:14.122Z,22.00
2022-12-03T19:21:08.810Z,22.50
2022-12-03T19:24:23.113Z,21.70
2022-12-03T19:27:09.719Z,21.70
2022-12-03T19:30:00.643Z,22.40
2022-12-03T19:32:51.422Z,22.40
2022-12-03T19:35:41.964Z,21.50
2022-12-03T19:38:32.447Z,23.20
2022-12-03T19:41:23.674Z,22.30
2022-12-03T19:44:18.336Z,22.60
2022-12-03T19:47:08.851Z,22.40
2022-12-03T19:49:59.370Z,20.90
2022-12-03T19:52:49.906Z,22.40
2022-12-03T19:55:40.285Z,21.70
2022-12-03T19:58:31.220Z,21.50
2022-12-03T20:01:23.494Z,21.10
2022-12-03T20:04:13.952Z,20.20
2022-12-03T20:07:04.269Z,21.40
2022-12-03T20:09:54.849Z,22.20
2022-12-03T20:12:45.659Z,21.00
2022-12-03T20:15:39.150Z,20.10
2022-12-03T20:18:29.538Z,20.10
2022-12-03T20:21:20.502Z,21.40
2022-12-03T20:24:14.376Z,20.60
2022-12-03T20:27:05.631Z,21.70
2022-12-03T20:29:56.317Z,21.00
2022-12-03T20:32:47.224Z,22.30
2022-12-03T20:35:38.367Z,21.10
2022-12-03T20:38:28.699Z,22.60
2022-12-03T20:41:20.255Z,22.40
2022-12-03T20:44:13.347Z,22.60
2022-12-03T20:47:03.704Z,22.40
2022-12-03T20:49:54.491Z,22.40
2022-12-03T20:53:03.239Z,22.30
2022-12-03T20:55:58.033Z,23.10
2022-12-03T20:58:48.837Z,24.60
2022-12-03T21:01:39.702Z,23.10
2022-12-03T21:04:30.081Z,24.60
2022-12-03T21:07:20.455Z,24.00
2022-12-03T21:10:31.589Z,24.80
2022-12-03T21:13:22.010Z,24.60
2022-12-03T21:16:13.873Z,24.70
2022-12-03T21:19:04.392Z,23.90
2022-12-03T21:21:54.743Z,24.20
2022-12-03T21:24:45.755Z,24.00
2022-12-03T21:27:36.554Z,24.30
2022-12-03T21:30:27.280Z,23.70
2022-12-03T21:33:17.729Z,24.40
2022-12-03T21:36:09.912Z,23.80
2022-12-03T21:39:00.312Z,24.60
2022-12-03T21:42:33.968Z,26.20
2022-12-03T21:45:01.984Z,24.50
2022-12-03T21:47:53.011Z,23.30
2022-12-03T21:50:44.072Z,24.20
2022-12-03T21:53:40.470Z,24.90
2022-12-03T21:56:37.546Z,24.80
2022-12-03T21:59:33.939Z,24.80
2022-12-03T22:05:20.966Z,23.10
2022-12-03T22:08:13.704Z,25.90
2022-12-03T22:11:11.667Z,24.90
2022-12-03T22:14:04.088Z,24.60
2022-12-03T22:16:54.631Z,24.90
2022-12-03T22:19:45.107Z,24.10
2022-12-03T22:22:35.910Z,24.00
2022-12-03T22:25:26.218Z,24.80
2022-12-03T22:28:16.562Z,24.70
2022-12-03T22:31:08.816Z,29.40
2022-12-03T22:33:59.208Z,32.80
2022-12-03T22:36:49.596Z,31.90
2022-12-03T22:39:40.243Z,29.30
2022-12-03T22:42:30.580Z,26.70
2022-12-03T22:45:20.897Z,28.40
2022-12-03T22:48:11.247Z,25.00
2022-12-03T22:51:01.743Z,23.90
2022-12-03T22:53:55.900Z,23.80
2022-12-03T22:56:46.233Z,22.30
2022-12-03T22:59:37.023Z,21.10
2022-12-03T23:02:27.448Z,21.00
2022-12-03T23:05:18.486Z,20.70
2022-12-03T23:08:09.634Z,21.00
2022-12-03T23:11:01.894Z,20.90
2022-12-03T23:13:52.322Z,19.60
2022-12-03T23:16:42.871Z,20.10
2022-12-03T23:19:34.929Z,19.60
2022-12-03T23:22:28.072Z,19.60
2022-12-03T23:25:18.729Z,19.70
2022-12-03T23:28:09.419Z,19.50
2022-12-03T23:30:59.828Z,19.50
2022-12-03T23:33:50.581Z,18.70
2022-12-03T23:36:41.026Z,18.60
2022-12-03T23:39:31.359Z,18.60
2022-12-03T23:42:21.685Z,18.70
2022-12-03T23:45:12.874Z,19.40
2022-12-03T23:48:03.622Z,18.30
2022-12-03T23:50:53.935Z,18.00
2022-12-03T23:53:44.650Z,18.30
2022-12-03T23:56:35.022Z,17.90
2022-12-03T23:59:25.730Z,17.30
